createdAt,value
2017-01-09T00:02:08.497Z,967.28
2017-01-09T00:04:20.961Z,967.27
2017-01-09T00:06:28.355Z,967.24
2017-01-09T00:08:40.683Z,967.25
2017-01-09T00:10:52.966Z,967.25
2017-01-09T00:13:05.221Z,967.23
2017-01-09T00:15:17.634Z,967.23
2017-01-09T00:17:30.083Z,967.21
2017-01-09T00:19:43.770Z,967.17
2017-01-09T00:21:56.552Z,967.16
2017-01-09T00:24:03.950Z,967.11
2017-01-09T00:26:11.322Z,967.08
2017-01-09T00:28:23.635Z,967.02
2017-01-09T00:30:35.834Z,966.98
2017-01-09T00:32:43.196Z,967.03
2017-01-09T00:34:55.523Z,967
2017-01-09T00:37:08.809Z,966.98
2017-01-09T00:39:21.110Z,967.05
2017-01-09T00:41:33.355Z,967.04
2017-01-09T00:43:45.797Z,967.01
2017-01-09T00:45:58.306Z,967.06
2017-01-09T00:48:11.565Z,967.11
2017-01-09T00:50:24.031Z,967.08
2017-01-09T00:52:36.357Z,967.07
2017-01-09T00:54:50.123Z,967.06
2017-01-09T00:57:03.476Z,967.09
2017-01-09T00:59:15.883Z,967.11
2017-01-09T01:01:32.092Z,967.14
2017-01-09T01:03:44.447Z,967.17
2017-01-09T01:05:56.871Z,967.17
2017-01-09T01:08:09.166Z,967.19
2017-01-09T01:10:21.586Z,967.17
2017-01-09T01:12:36.986Z,967.17
2017-01-09T01:14:49.423Z,967.15
2017-01-09T01:17:01.959Z,967.12
2017-01-09T01:19:15.366Z,967.09
2017-01-09T01:21:27.786Z,967.08
2017-01-09T01:23:40.179Z,967.03
2017-01-09T01:25:52.518Z,967.08
2017-01-09T01:28:06.224Z,966.98
2017-01-09T01:30:19.140Z,966.98
2017-01-09T01:32:26.509Z,966.95
2017-01-09T01:34:38.742Z,966.94
2017-01-09T01:36:52.117Z,966.96
2017-01-09T01:39:04.472Z,966.95
2017-01-09T01:41:17.818Z,967.03
2017-01-09T01:43:25.468Z,966.96
2017-01-09T01:45:37.876Z,966.93
2017-01-09T01:47:45.111Z,966.96
2017-01-09T01:49:57.707Z,967
2017-01-09T01:52:05.222Z,967.02
2017-01-09T01:54:17.703Z,967.03
2017-01-09T01:56:30.190Z,967.05
2017-01-09T01:58:43.681Z,967.04
2017-01-09T02:00:56.454Z,967.08
2017-01-09T02:03:09.522Z,967.11
2017-01-09T02:05:21.949Z,967.08
2017-01-09T02:07:34.399Z,967.08
2017-01-09T02:09:46.868Z,967.11
2017-01-09T02:11:59.100Z,967.15
2017-01-09T02:14:11.290Z,967.21
2017-01-09T02:16:25.573Z,967.17
2017-01-09T02:18:38.164Z,967.11
2017-01-09T02:20:45.626Z,967.03
2017-01-09T02:22:58.009Z,967.04
2017-01-09T02:25:11.398Z,967.06
2017-01-09T02:27:24.807Z,967.08
2017-01-09T02:29:37.173Z,967.06
2017-01-09T02:31:48.392Z,967.06
2017-01-09T02:34:00.789Z,967.09
2017-01-09T02:36:08.399Z,967.06
2017-01-09T02:38:15.777Z,967.06
2017-01-09T02:40:29.171Z,966.98
2017-01-09T02:42:41.448Z,967.01
2017-01-09T02:44:51.359Z,966.96
2017-01-09T02:47:03.726Z,966.92
2017-01-09T02:49:16.236Z,966.9
2017-01-09T02:51:29.594Z,966.89
2017-01-09T02:53:42.972Z,966.94
2017-01-09T02:55:57.324Z,966.97
2017-01-09T02:58:09.541Z,966.92
2017-01-09T03:00:22.975Z,966.91
2017-01-09T03:02:35.261Z,966.91
2017-01-09T03:04:37.430Z,966.92
2017-01-09T03:06:49.667Z,966.9
2017-01-09T03:09:02.127Z,966.89
2017-01-09T03:11:15.761Z,966.84
2017-01-09T03:13:29.938Z,966.71
2017-01-09T03:15:42.338Z,966.74
2017-01-09T03:17:54.649Z,966.69
2017-01-09T03:20:09.649Z,966.73
2017-01-09T03:22:25.331Z,966.83
2017-01-09T03:24:40.344Z,966.8
2017-01-09T03:26:53.909Z,966.76
2017-01-09T03:29:08.302Z,966.8
2017-01-09T03:31:20.670Z,966.75
2017-01-09T03:33:34.118Z,966.75
2017-01-09T03:35:46.526Z,966.73
2017-01-09T03:37:58.795Z,966.76
2017-01-09T03:40:14.112Z,966.72
2017-01-09T03:42:26.480Z,966.74
2017-01-09T03:44:33.913Z,966.74
2017-01-09T03:46:46.605Z,966.76
2017-01-09T03:48:59.081Z,966.71
2017-01-09T03:51:06.656Z,966.74
2017-01-09T03:53:18.887Z,966.68
2017-01-09T03:55:26.179Z,966.58
2017-01-09T03:57:38.324Z,966.58
2017-01-09T03:59:50.488Z,966.49
2017-01-09T04:02:02.690Z,966.41
2017-01-09T04:04:15.002Z,966.35
2017-01-09T04:06:28.051Z,966.34
2017-01-09T04:08:35.274Z,966.32
2017-01-09T04:10:47.576Z,966.37
2017-01-09T04:13:00.141Z,966.36
2017-01-09T04:15:12.393Z,966.31
2017-01-09T04:17:24.775Z,966.31
2017-01-09T04:19:37.767Z,966.39
2017-01-09T04:21:50.755Z,966.38
2017-01-09T04:24:03.138Z,966.41
2017-01-09T04:26:15.387Z,966.43
2017-01-09T04:28:27.891Z,966.38
2017-01-09T04:30:40.122Z,966.39
2017-01-09T04:32:52.384Z,966.36
2017-01-09T04:35:05.713Z,966.34
2017-01-09T04:37:17.947Z,966.31
2017-01-09T04:39:25.225Z,966.38
2017-01-09T04:41:37.480Z,966.36
2017-01-09T04:43:49.699Z,966.31
2017-01-09T04:46:02.175Z,966.31
2017-01-09T04:48:14.894Z,966.28
2017-01-09T04:50:27.282Z,966.26
2017-01-09T04:52:40.097Z,966.23
2017-01-09T04:54:47.433Z,966.19
2017-01-09T04:57:00.064Z,966.19
2017-01-09T04:59:12.356Z,966.24
2017-01-09T05:01:25.602Z,966.2
2017-01-09T05:03:37.977Z,966.2
2017-01-09T05:05:50.296Z,966.23
2017-01-09T05:08:02.725Z,966.16
2017-01-09T05:10:09.986Z,966.15
2017-01-09T05:12:17.389Z,966.15
2017-01-09T05:14:29.705Z,966.18
2017-01-09T05:16:41.940Z,966.16
2017-01-09T05:18:54.266Z,966.13
2017-01-09T05:21:06.664Z,966.13
2017-01-09T05:23:18.937Z,966.14
2017-01-09T05:25:26.257Z,966.11
2017-01-09T05:27:38.376Z,966.12
2017-01-09T05:29:50.682Z,966.09
2017-01-09T05:32:03.252Z,966.16
2017-01-09T05:34:11.813Z,966.15
2017-01-09T05:36:24.015Z,966.1
2017-01-09T05:38:36.217Z,966.11
2017-01-09T05:40:48.440Z,966.12
2017-01-09T05:43:00.679Z,966.08
2017-01-09T05:45:13.110Z,966.1
2017-01-09T05:47:25.473Z,966.13
2017-01-09T05:49:37.882Z,966.1
2017-01-09T05:51:45.425Z,966.07
2017-01-09T05:53:57.782Z,966.08
2017-01-09T05:56:05.196Z,966.04
2017-01-09T05:58:17.452Z,966.05
2017-01-09T06:00:29.648Z,966.05
2017-01-09T06:02:41.922Z,966.05
2017-01-09T06:04:54.307Z,966.1
2017-01-09T06:07:06.735Z,966.09
2017-01-09T06:09:19.190Z,966.09
2017-01-09T06:11:31.342Z,966.07
2017-01-09T06:13:43.785Z,966.08
2017-01-09T06:15:56.006Z,966.08
2017-01-09T06:18:08.257Z,966.01
2017-01-09T06:20:15.552Z,966.01
2017-01-09T06:22:27.892Z,966.06
2017-01-09T06:24:40.245Z,966.13
2017-01-09T06:26:52.767Z,966.07
2017-01-09T06:29:05.049Z,966.02
2017-01-09T06:31:17.306Z,966
2017-01-09T06:33:29.529Z,966
2017-01-09T06:35:36.887Z,966.01
2017-01-09T06:37:44.163Z,965.95
2017-01-09T06:39:56.899Z,965.98
2017-01-09T06:42:09.861Z,965.98
2017-01-09T06:44:22.523Z,965.99
2017-01-09T06:46:29.805Z,965.97
2017-01-09T06:48:42.204Z,965.96
2017-01-09T06:50:54.605Z,965.96
2017-01-09T06:53:06.767Z,965.94
2017-01-09T06:55:19.015Z,965.94
2017-01-09T06:57:31.310Z,965.95
2017-01-09T06:59:43.768Z,965.9
2017-01-09T07:01:56.121Z,965.91
2017-01-09T07:04:08.294Z,965.85
2017-01-09T07:06:20.672Z,965.88
2017-01-09T07:08:27.953Z,965.87
2017-01-09T07:10:40.440Z,965.91
2017-01-09T07:12:52.786Z,965.9
2017-01-09T07:15:06.417Z,965.82
2017-01-09T07:17:19.037Z,965.81
2017-01-09T07:19:31.711Z,965.67
2017-01-09T07:21:43.939Z,965.71
2017-01-09T07:23:51.444Z,965.68
2017-01-09T07:26:03.995Z,965.7
2017-01-09T07:28:16.731Z,965.78
2017-01-09T07:30:29.078Z,965.76
2017-01-09T07:32:41.786Z,965.78
2017-01-09T07:34:54.748Z,965.74
2017-01-09T07:37:07.110Z,965.68
2017-01-09T07:39:20.112Z,965.69
2017-01-09T07:41:32.786Z,965.65
2017-01-09T07:43:45.805Z,965.66
2017-01-09T07:45:58.310Z,965.55
2017-01-09T07:48:10.818Z,965.51
2017-01-09T07:50:23.553Z,965.43
2017-01-09T07:52:34.332Z,965.42
2017-01-09T07:54:47.437Z,965.39
2017-01-09T07:56:55.057Z,965.34
2017-01-09T07:59:07.331Z,965.37
2017-01-09T08:01:19.703Z,965.34
2017-01-09T08:03:31.994Z,965.28
2017-01-09T08:05:44.472Z,965.28
2017-01-09T08:07:52.476Z,965.26
2017-01-09T08:10:04.846Z,965.28
2017-01-09T08:12:17.150Z,965.28
2017-01-09T08:14:29.593Z,965.26
2017-01-09T08:16:42.483Z,965.24
2017-01-09T08:18:49.793Z,965.2
2017-01-09T08:21:02.064Z,965.21
2017-01-09T08:23:14.343Z,965.2
2017-01-09T08:25:26.637Z,965.23
2017-01-09T08:27:38.968Z,965.2
2017-01-09T08:29:51.930Z,965.3
2017-01-09T08:32:04.209Z,965.3
2017-01-09T08:34:16.534Z,965.24
2017-01-09T08:36:23.806Z,965.25
2017-01-09T08:38:36.324Z,965.28
2017-01-09T08:40:48.588Z,965.31
2017-01-09T08:43:00.765Z,965.35
2017-01-09T08:45:14.035Z,965.36
2017-01-09T08:47:26.493Z,965.35
2017-01-09T08:49:38.712Z,965.38
2017-01-09T08:51:51.095Z,965.39
2017-01-09T08:53:58.521Z,965.38
2017-01-09T08:56:10.936Z,965.39
2017-01-09T08:58:23.112Z,965.35
2017-01-09T09:00:35.390Z,965.32
2017-01-09T09:02:42.935Z,965.3
2017-01-09T09:04:55.382Z,965.2
2017-01-09T09:07:02.743Z,965.18
2017-01-09T09:09:10.010Z,965.22
2017-01-09T09:11:22.173Z,965.24
2017-01-09T09:13:37.102Z,965.21
2017-01-09T09:15:49.396Z,965.27
2017-01-09T09:18:03.783Z,965.3
2017-01-09T09:20:27.826Z,965.3
2017-01-09T09:22:41.728Z,965.27
2017-01-09T09:25:05.795Z,965.29
2017-01-09T09:27:18.039Z,965.27
2017-01-09T09:29:30.296Z,965.24
2017-01-09T09:31:42.597Z,965.22
2017-01-09T09:33:54.786Z,965.26
2017-01-09T09:36:02.025Z,965.24
2017-01-09T09:38:09.520Z,965.15
2017-01-09T09:40:22.231Z,965.16
2017-01-09T09:42:34.455Z,965.11
2017-01-09T09:44:45.439Z,965.08
2017-01-09T09:47:03.020Z,965.01
2017-01-09T09:49:26.701Z,964.93
2017-01-09T09:51:50.152Z,964.91
2017-01-09T09:54:05.556Z,964.96
2017-01-09T09:56:17.859Z,964.94
2017-01-09T09:58:30.114Z,964.93
2017-01-09T10:00:37.481Z,964.96
2017-01-09T10:02:49.692Z,964.94
2017-01-09T10:05:02.238Z,964.9
2017-01-09T10:07:14.724Z,964.85
2017-01-09T10:09:26.912Z,964.82
2017-01-09T10:11:39.225Z,964.79
2017-01-09T10:13:51.606Z,964.79
2017-01-09T10:16:04.215Z,964.77
2017-01-09T10:18:16.585Z,964.73
2017-01-09T10:20:29.887Z,964.71
2017-01-09T10:22:42.326Z,964.64
2017-01-09T10:24:54.646Z,964.65
2017-01-09T10:27:06.976Z,964.6
2017-01-09T10:29:14.888Z,964.58
2017-01-09T10:31:27.090Z,964.53
2017-01-09T10:33:39.306Z,964.49
2017-01-09T10:35:51.553Z,964.5
2017-01-09T10:38:04.031Z,964.46
2017-01-09T10:40:16.269Z,964.41
2017-01-09T10:42:23.712Z,964.37
2017-01-09T10:44:35.896Z,964.4
2017-01-09T10:46:43.314Z,964.41
2017-01-09T10:48:55.703Z,964.31
2017-01-09T10:51:08.445Z,964.3
2017-01-09T10:53:21.251Z,964.3
2017-01-09T10:55:35.741Z,964.25
2017-01-09T10:57:48.260Z,964.24
2017-01-09T11:00:00.672Z,964.21
2017-01-09T11:02:13.089Z,964.23
2017-01-09T11:04:26.297Z,964.13
2017-01-09T11:06:38.532Z,964.11
2017-01-09T11:08:50.797Z,964.13
2017-01-09T11:11:03.075Z,964.04
2017-01-09T11:13:15.577Z,964.03
2017-01-09T11:15:27.793Z,964.05
2017-01-09T11:17:39.977Z,964.03
2017-01-09T11:19:52.174Z,964.02
2017-01-09T11:22:04.481Z,963.99
2017-01-09T11:24:16.840Z,963.98
2017-01-09T11:26:24.039Z,963.93
2017-01-09T11:28:31.559Z,963.88
2017-01-09T11:30:43.942Z,963.91
2017-01-09T11:32:56.229Z,963.91
2017-01-09T11:35:08.694Z,963.86
2017-01-09T11:37:20.963Z,963.87
2017-01-09T11:39:33.205Z,963.81
2017-01-09T11:41:40.632Z,963.81
2017-01-09T11:43:52.853Z,963.83
2017-01-09T11:46:05.166Z,963.84
2017-01-09T11:48:17.352Z,963.75
2017-01-09T11:50:29.890Z,963.71
2017-01-09T11:52:42.272Z,963.69
2017-01-09T11:54:54.633Z,963.63
2017-01-09T11:57:02.031Z,963.61
2017-01-09T11:59:14.419Z,963.6
2017-01-09T12:01:26.765Z,963.54
2017-01-09T12:03:39.067Z,963.48
2017-01-09T12:05:43.003Z,963.49
2017-01-09T12:07:55.351Z,963.44
2017-01-09T12:10:07.863Z,963.41
2017-01-09T12:12:20.127Z,963.41
2017-01-09T12:14:32.406Z,963.31
2017-01-09T12:16:44.643Z,963.3
2017-01-09T12:18:57.078Z,963.31
2017-01-09T12:21:04.537Z,963.34
2017-01-09T12:23:16.983Z,963.25
2017-01-09T12:25:24.547Z,963.21
2017-01-09T12:27:36.918Z,963.21
2017-01-09T12:29:49.230Z,963.12
2017-01-09T12:31:58.233Z,963.1
2017-01-09T12:34:10.638Z,963.03
2017-01-09T12:36:23.230Z,963.04
2017-01-09T12:38:30.948Z,963
2017-01-09T12:40:43.417Z,962.99
2017-01-09T12:42:51.108Z,963.02
2017-01-09T12:45:05.138Z,962.98
2017-01-09T12:47:19.566Z,962.99
2017-01-09T12:49:34.117Z,962.96
2017-01-09T12:51:54.099Z,962.97
2017-01-09T12:54:02.409Z,962.9
2017-01-09T12:56:14.922Z,962.92
2017-01-09T12:58:28.619Z,962.87
2017-01-09T13:00:41.078Z,962.9
2017-01-09T13:02:53.920Z,962.84
2017-01-09T13:05:06.272Z,962.83
2017-01-09T13:07:18.816Z,962.82
2017-01-09T13:09:31.217Z,962.8
2017-01-09T13:11:43.495Z,962.8
2017-01-09T13:13:56.064Z,962.79
2017-01-09T13:16:03.588Z,962.8
2017-01-09T13:18:11.176Z,962.79
2017-01-09T13:20:23.816Z,962.73
2017-01-09T13:22:31.195Z,962.71
2017-01-09T13:24:38.740Z,962.68
2017-01-09T13:26:51.361Z,962.66
2017-01-09T13:28:58.854Z,962.66
2017-01-09T13:31:11.533Z,962.66
2017-01-09T13:33:23.827Z,962.6
2017-01-09T13:35:36.320Z,962.61
2017-01-09T13:37:48.740Z,962.58
2017-01-09T13:40:01.129Z,962.59
2017-01-09T13:42:13.731Z,962.65
2017-01-09T13:44:26.198Z,962.65
2017-01-09T13:46:38.807Z,962.66
2017-01-09T13:48:51.409Z,962.59
2017-01-09T13:51:03.895Z,962.62
2017-01-09T13:53:11.434Z,962.59
2017-01-09T13:55:24.034Z,962.6
2017-01-09T13:57:36.841Z,962.57
2017-01-09T13:59:49.445Z,962.61
2017-01-09T14:02:01.890Z,962.63
2017-01-09T14:04:14.442Z,962.54
2017-01-09T14:06:26.862Z,962.44
2017-01-09T14:08:34.623Z,962.46
2017-01-09T14:10:47.410Z,962.5
2017-01-09T14:12:59.987Z,962.44
2017-01-09T14:15:12.333Z,962.34
2017-01-09T14:17:24.720Z,962.36
2017-01-09T14:19:37.377Z,962.33
2017-01-09T14:21:49.693Z,962.33
2017-01-09T14:24:02.538Z,962.27
2017-01-09T14:26:14.980Z,962.26
2017-01-09T14:28:27.516Z,962.25
2017-01-09T14:30:40.877Z,962.23
2017-01-09T14:32:53.831Z,962.2
2017-01-09T14:35:06.268Z,962.26
2017-01-09T14:37:19.900Z,962.24
2017-01-09T14:39:32.363Z,962.21
2017-01-09T14:42:08.051Z,962.16
2017-01-09T14:45:00.536Z,962.11
2017-01-09T14:47:21.953Z,962.14
2017-01-09T14:49:34.322Z,962.07
2017-01-09T14:51:46.895Z,962.06
2017-01-09T14:53:59.638Z,962.11
2017-01-09T14:56:03.429Z,962.11
2017-01-09T14:58:15.854Z,962.14
2017-01-09T15:00:28.411Z,962.04
2017-01-09T15:02:40.763Z,961.99
2017-01-09T15:04:53.623Z,961.94
2017-01-09T15:07:06.206Z,961.94
2017-01-09T15:09:18.727Z,961.93
2017-01-09T15:11:31.354Z,961.92
2017-01-09T15:13:39.048Z,961.89
2017-01-09T15:15:51.477Z,961.86
2017-01-09T15:18:04.099Z,961.85
2017-01-09T15:20:12.771Z,961.87
2017-01-09T15:22:26.081Z,961.87
2017-01-09T15:24:38.590Z,961.89
2017-01-09T15:26:47.572Z,961.9
2017-01-09T15:29:00.063Z,961.85
2017-01-09T15:31:13.528Z,961.82
2017-01-09T15:33:21.383Z,961.77
2017-01-09T15:35:33.771Z,961.78
2017-01-09T15:37:46.148Z,961.78
2017-01-09T15:39:58.818Z,961.72
2017-01-09T15:42:11.338Z,961.72
2017-01-09T15:44:18.945Z,961.77
2017-01-09T15:46:31.480Z,961.76
2017-01-09T15:48:44.292Z,961.79
2017-01-09T15:50:52.892Z,961.75
2017-01-09T15:53:05.359Z,961.75
2017-01-09T15:55:17.743Z,961.72
2017-01-09T15:57:30.043Z,961.72
2017-01-09T15:59:42.808Z,961.73
2017-01-09T16:01:55.587Z,961.7
2017-01-09T16:04:08.087Z,961.72
2017-01-09T16:06:20.664Z,961.73
2017-01-09T16:08:32.961Z,961.7
2017-01-09T16:10:40.515Z,961.7
2017-01-09T16:12:52.915Z,961.7
2017-01-09T16:15:04.353Z,961.7
2017-01-09T16:17:18.046Z,961.68
2017-01-09T16:19:32.682Z,961.66
2017-01-09T16:21:46.170Z,961.75
2017-01-09T16:23:56.124Z,961.72
2017-01-09T16:26:11.208Z,961.72
2017-01-09T16:28:26.585Z,961.72
2017-01-09T16:30:39.179Z,961.7
2017-01-09T16:32:52.899Z,961.69
2017-01-09T16:35:05.726Z,961.66
2017-01-09T16:37:23.066Z,961.63
2017-01-09T16:39:30.775Z,961.59
2017-01-09T16:41:43.588Z,961.57
2017-01-09T16:44:01.293Z,961.51
2017-01-09T16:46:16.403Z,961.5
2017-01-09T16:48:28.697Z,961.46
2017-01-09T16:50:41.295Z,961.44
2017-01-09T16:52:53.904Z,961.43
2017-01-09T16:55:06.490Z,961.42
2017-01-09T16:57:14.077Z,961.41
2017-01-09T16:59:38.283Z,961.41
2017-01-09T17:01:52.735Z,961.42
2017-01-09T17:04:28.167Z,961.38
2017-01-09T17:06:47.127Z,961.31
2017-01-09T17:09:00.759Z,961.22
2017-01-09T17:11:13.337Z,961.25
2017-01-09T17:13:25.837Z,961.25
2017-01-09T17:15:38.402Z,961.22
2017-01-09T17:17:50.946Z,961.14
2017-01-09T17:20:03.323Z,961.11
2017-01-09T17:22:10.802Z,961.09
2017-01-09T17:24:23.388Z,961.06
2017-01-09T17:26:35.900Z,961.01
2017-01-09T17:28:48.545Z,960.96
2017-01-09T17:31:01.184Z,960.94
2017-01-09T17:33:13.442Z,961
2017-01-09T17:35:25.802Z,960.97
2017-01-09T17:37:39.766Z,960.98
2017-01-09T17:39:47.331Z,960.94
2017-01-09T17:42:01.567Z,960.98
2017-01-09T17:44:14.867Z,960.91
2017-01-09T17:46:27.679Z,960.89
2017-01-09T17:48:41.232Z,960.86
2017-01-09T17:50:55.566Z,960.83
2017-01-09T17:53:08.542Z,960.82
2017-01-09T17:55:17.323Z,960.77
2017-01-09T17:57:27.154Z,960.72
2017-01-09T17:59:42.015Z,960.75
2017-01-09T18:01:55.281Z,960.66
2017-01-09T18:04:08.146Z,960.71
2017-01-09T18:06:22.502Z,960.74
2017-01-09T18:08:41.003Z,960.71
2017-01-09T18:10:49.795Z,960.71
2017-01-09T18:12:59.597Z,960.69
2017-01-09T18:15:10.338Z,960.69
2017-01-09T18:17:24.919Z,960.72
2017-01-09T18:19:37.880Z,960.74
2017-01-09T18:21:50.496Z,960.73
2017-01-09T18:24:02.970Z,960.75
2017-01-09T18:26:17.573Z,960.68
2017-01-09T18:28:31.660Z,960.6
2017-01-09T18:30:45.866Z,960.57
2017-01-09T18:33:00.931Z,960.58
2017-01-09T18:35:14.509Z,960.58
2017-01-09T18:37:27.868Z,960.62
2017-01-09T18:39:43.075Z,960.53
2017-01-09T18:41:58.128Z,960.5
2017-01-09T18:44:11.222Z,960.46
2017-01-09T18:46:26.568Z,960.44
2017-01-09T18:48:41.545Z,960.39
2017-01-09T18:50:55.955Z,960.41
2017-01-09T18:53:10.962Z,960.39
2017-01-09T18:55:27.413Z,960.38
2017-01-09T18:57:41.937Z,960.34
2017-01-09T18:59:55.759Z,960.32
2017-01-09T19:02:17.602Z,960.29
2017-01-09T19:04:33.837Z,960.27
2017-01-09T19:07:07.904Z,960.31
2017-01-09T19:09:32.496Z,960.32
2017-01-09T19:11:47.194Z,960.37
2017-01-09T19:13:59.169Z,960.36
2017-01-09T19:16:13.667Z,960.35
2017-01-09T19:18:32.078Z,960.37
2017-01-09T19:20:45.128Z,960.36
2017-01-09T19:23:02.678Z,960.4
2017-01-09T19:25:21.939Z,960.31
2017-01-09T19:27:39.020Z,960.3
2017-01-09T19:29:56.807Z,960.25
2017-01-09T19:32:08.160Z,960.19
2017-01-09T19:34:25.306Z,960.09
2017-01-09T19:36:43.370Z,960.08
2017-01-09T19:38:59.958Z,960.09
2017-01-09T19:41:15.297Z,960.11
2017-01-09T19:43:28.976Z,960.08
2017-01-09T19:45:40.719Z,960.07
2017-01-09T19:47:56.254Z,960.06
2017-01-09T19:50:13.799Z,960.01
2017-01-09T19:52:30.298Z,959.98
2017-01-09T19:54:48.639Z,959.96
2017-01-09T19:57:06.160Z,959.93
2017-01-09T19:59:24.809Z,959.89
2017-01-09T20:01:41.606Z,959.86
2017-01-09T20:04:01.081Z,959.88
2017-01-09T20:06:23.348Z,959.88
2017-01-09T20:08:41.451Z,959.78
2017-01-09T20:11:09.099Z,959.69
2017-01-09T20:13:33.562Z,959.68
2017-01-09T20:16:10.051Z,959.63
2017-01-09T20:19:04.357Z,959.62
2017-01-09T20:22:05.341Z,959.59
2017-01-09T20:24:41.615Z,959.61
2017-01-09T20:27:14.284Z,959.56
2017-01-09T20:29:45.991Z,959.51
2017-01-09T20:32:08.551Z,959.5
2017-01-09T20:34:40.384Z,959.45
2017-01-09T20:37:15.531Z,959.42
2017-01-09T20:39:40.303Z,959.42
2017-01-09T20:42:16.549Z,959.33
2017-01-09T20:44:48.101Z,959.24
2017-01-09T20:47:15.053Z,959.16
2017-01-09T20:49:46.117Z,959.09
2017-01-09T20:52:38.532Z,959.06
2017-01-09T20:54:52.623Z,959.09
2017-01-09T20:57:37.467Z,959.11
2017-01-09T21:00:43.897Z,959.04
2017-01-09T21:03:27.557Z,959.04
2017-01-09T21:05:52.587Z,959.02
2017-01-09T21:08:16.335Z,959.01
2017-01-09T21:10:44.557Z,958.97
2017-01-09T21:13:13.996Z,958.94
2017-01-09T21:15:36.576Z,958.95
2017-01-09T21:17:45.992Z,958.84
2017-01-09T21:20:05.923Z,958.82
2017-01-09T21:22:42.916Z,958.81
2017-01-09T21:25:03.075Z,958.73
2017-01-09T21:27:39.237Z,958.69
2017-01-09T21:30:14.092Z,958.62
